createdAt,value
2022-08-11T00:01:29.615Z,99.76
2022-08-11T00:04:02.193Z,99.41
2022-08-11T00:06:35.860Z,99.62
2022-08-11T00:09:08.482Z,99.67
2022-08-11T00:11:38.571Z,99.42
2022-08-11T00:14:20.198Z,98.99
2022-08-11T00:17:16.161Z,98.95
2022-08-11T00:20:14.102Z,98.99
2022-08-11T00:22:42.828Z,98.86
2022-08-11T00:25:20.690Z,98.92
2022-08-11T00:27:50.346Z,98.97
2022-08-11T00:30:19.217Z,98.66
2022-08-11T00:32:59.921Z,98.90
2022-08-11T00:35:56.158Z,98.78
2022-08-11T00:38:27.837Z,99.02
2022-08-11T00:41:33.718Z,98.28
2022-08-11T00:44:30.077Z,98.35
2022-08-11T00:47:17.328Z,98.42
2022-08-11T00:49:56.855Z,98.73
2022-08-11T00:53:04.674Z,98.65
2022-08-11T00:56:12.562Z,98.35
2022-08-11T00:59:34.306Z,98.26
2022-08-11T01:02:03.777Z,98.45
2022-08-11T01:04:41.953Z,98.46
2022-08-11T01:08:01.222Z,98.04
2022-08-11T01:10:31.589Z,97.89
2022-08-11T01:13:25.159Z,97.62
2022-08-11T01:16:31.068Z,97.78
2022-08-11T01:19:33.920Z,97.99
2022-08-11T01:22:34.338Z,97.73
2022-08-11T01:25:57.017Z,97.48
2022-08-11T01:28:50.616Z,96.90
2022-08-11T01:31:24.854Z,97.14
2022-08-11T01:34:30.415Z,96.68
2022-08-11T01:37:58.935Z,96.70
2022-08-11T01:40:39.422Z,96.60
2022-08-11T01:43:56.860Z,96.21
2022-08-11T01:46:35.503Z,96.20
2022-08-11T01:50:07.247Z,96.78
2022-08-11T01:52:35.012Z,96.45
2022-08-11T01:55:29.501Z,96.25
2022-08-11T01:58:22.666Z,96.06
2022-08-11T02:01:17.399Z,95.34
2022-08-11T02:04:04.418Z,94.92
2022-08-11T02:06:58.126Z,94.69
2022-08-11T02:09:57.509Z,95.54
2022-08-11T02:12:53.624Z,95.58
2022-08-11T02:15:27.842Z,95.12
2022-08-11T02:18:55.182Z,95.29
2022-08-11T02:21:55.859Z,94.81
2022-08-11T02:24:51.460Z,95.10
2022-08-11T02:27:28.832Z,94.89
2022-08-11T02:30:15.574Z,94.00
2022-08-11T02:33:17.580Z,94.04
2022-08-11T02:36:03.735Z,94.14
2022-08-11T02:38:46.991Z,93.80
2022-08-11T02:41:48.762Z,94.59
2022-08-11T02:44:50.218Z,94.11
2022-08-11T02:48:14.431Z,93.66
2022-08-11T02:51:03.812Z,93.81
2022-08-11T02:53:39.788Z,93.41
2022-08-11T02:56:45.510Z,93.60
2022-08-11T02:59:41.268Z,93.48
2022-08-11T03:02:33.137Z,93.77
2022-08-11T03:05:18.699Z,93.01
2022-08-11T03:08:11.487Z,93.00
2022-08-11T03:11:13.420Z,93.65
2022-08-11T03:14:41.981Z,93.34
2022-08-11T03:17:19.336Z,93.70
2022-08-11T03:19:54.154Z,93.32
2022-08-11T03:23:03.676Z,93.53
2022-08-11T03:25:55.694Z,93.21
2022-08-11T03:28:36.488Z,93.15
2022-08-11T03:31:25.919Z,92.89
2022-08-11T03:34:07.915Z,92.79
2022-08-11T03:37:15.753Z,92.43
2022-08-11T03:39:58.599Z,92.90
2022-08-11T03:42:43.919Z,92.75
2022-08-11T03:45:40.827Z,93.04
2022-08-11T03:48:30.706Z,92.82
2022-08-11T03:51:19.758Z,92.75
2022-08-11T03:54:37.832Z,92.63
2022-08-11T03:57:24.884Z,91.10
2022-08-11T04:00:12.205Z,92.48
2022-08-11T04:02:54.188Z,92.44
2022-08-11T04:05:51.950Z,91.69
2022-08-11T04:08:47.541Z,91.13
2022-08-11T04:11:40.130Z,91.79
2022-08-11T04:14:41.442Z,91.93
2022-08-11T04:17:26.299Z,91.72
2022-08-11T04:20:15.735Z,92.35
2022-08-11T04:23:08.965Z,93.14
2022-08-11T04:25:58.531Z,91.58
2022-08-11T04:28:53.992Z,90.85
2022-08-11T04:31:51.076Z,90.23
2022-08-11T04:34:44.025Z,91.46
2022-08-11T04:37:32.747Z,91.93
2022-08-11T04:40:21.067Z,90.48
2022-08-11T04:43:32.875Z,91.71
2022-08-11T04:46:29.172Z,91.59
2022-08-11T04:49:55.622Z,91.72
2022-08-11T04:53:30.053Z,92.56
2022-08-11T04:56:17.041Z,90.60
2022-08-11T04:59:29.874Z,91.15
2022-08-11T05:02:28.298Z,91.66
2022-08-11T05:05:56.655Z,90.90
2022-08-11T05:08:47.283Z,91.38
2022-08-11T05:11:40.051Z,91.20
2022-08-11T05:14:33.119Z,92.21
2022-08-11T05:17:28.597Z,91.60
2022-08-11T05:20:16.079Z,91.12
2022-08-11T05:23:09.660Z,91.25
2022-08-11T05:26:43.220Z,92.38
2022-08-11T05:29:21.062Z,91.52
2022-08-11T05:32:27.671Z,91.02
2022-08-11T05:34:59.399Z,90.26
2022-08-11T05:38:03.241Z,89.89
2022-08-11T05:40:53.007Z,91.02
2022-08-11T05:44:20.073Z,90.68
2022-08-11T05:46:49.512Z,90.93
2022-08-11T05:49:36.433Z,90.16
2022-08-11T05:52:32.079Z,89.71
2022-08-11T05:55:26.739Z,88.06
2022-08-11T05:58:07.695Z,87.84
2022-08-11T06:00:50.598Z,88.52
2022-08-11T06:03:30.554Z,89.60
2022-08-11T06:06:00.464Z,89.67
2022-08-11T06:08:37.041Z,89.10
2022-08-11T06:11:07.549Z,88.78
2022-08-11T06:13:37.022Z,88.68
2022-08-11T06:16:07.288Z,88.51
2022-08-11T06:18:37.621Z,86.84
2022-08-11T06:21:12.602Z,86.26
2022-08-11T06:23:43.649Z,85.65
2022-08-11T06:26:14.859Z,86.32
2022-08-11T06:28:46.611Z,86.01
2022-08-11T06:31:27.276Z,87.37
2022-08-11T06:34:28.748Z,86.88
2022-08-11T06:37:36.674Z,86.12
2022-08-11T06:40:14.684Z,86.01
2022-08-11T06:42:58.271Z,86.58
2022-08-11T06:45:49.178Z,87.75
2022-08-11T06:48:21.351Z,87.65
2022-08-11T06:51:13.994Z,87.37
2022-08-11T06:54:04.209Z,88.66
2022-08-11T06:57:26.406Z,88.26
2022-08-11T07:00:05.449Z,88.33
2022-08-11T07:02:53.457Z,89.03
2022-08-11T07:05:30.311Z,87.54
2022-08-11T07:09:05.681Z,88.33
2022-08-11T07:12:04.463Z,87.64
2022-08-11T07:14:51.844Z,87.90
2022-08-11T07:17:27.422Z,87.40
2022-08-11T07:20:22.871Z,88.42
2022-08-11T07:23:18.829Z,88.12
2022-08-11T07:26:13.811Z,88.73
2022-08-11T07:28:59.108Z,87.87
2022-08-11T07:31:34.085Z,88.15
2022-08-11T07:34:20.654Z,89.06
2022-08-11T07:36:55.023Z,88.83
2022-08-11T07:39:38.224Z,89.36
2022-08-11T07:42:11.343Z,88.40
2022-08-11T07:45:01.759Z,88.78
2022-08-11T07:47:50.136Z,88.00
2022-08-11T07:50:37.637Z,87.60
2022-08-11T07:53:06.798Z,87.59
2022-08-11T07:55:50.874Z,87.39
2022-08-11T07:58:45.748Z,87.26
2022-08-11T08:01:44.000Z,86.08
2022-08-11T08:04:34.944Z,86.78
2022-08-11T08:07:24.418Z,87.34
2022-08-11T08:10:14.194Z,86.90
2022-08-11T08:13:03.565Z,85.72
2022-08-11T08:15:51.157Z,86.50
2022-08-11T08:18:26.488Z,85.11
2022-08-11T08:21:12.934Z,87.29
2022-08-11T08:23:47.184Z,86.37
2022-08-11T08:26:40.302Z,86.22
2022-08-11T08:29:28.111Z,86.05
2022-08-11T08:31:58.824Z,85.72
2022-08-11T08:34:28.883Z,85.71
2022-08-11T08:37:02.430Z,86.70
2022-08-11T08:39:47.498Z,84.10
2022-08-11T08:42:25.589Z,86.16
2022-08-11T08:45:00.080Z,85.41
2022-08-11T08:47:42.956Z,84.61
2022-08-11T08:50:27.533Z,84.47
2022-08-11T08:53:02.203Z,84.98
2022-08-11T08:55:32.363Z,84.68
2022-08-11T08:58:02.351Z,85.50
2022-08-11T09:00:42.539Z,84.71
2022-08-11T09:03:39.088Z,84.75
2022-08-11T09:06:01.889Z,83.65
2022-08-11T09:08:34.070Z,84.37
2022-08-11T09:11:23.941Z,83.91
2022-08-11T09:14:06.611Z,84.26
2022-08-11T09:16:40.773Z,84.52
2022-08-11T09:19:10.311Z,85.19
2022-08-11T09:21:48.206Z,84.61
2022-08-11T09:24:38.042Z,85.45
2022-08-11T09:27:08.888Z,85.58
2022-08-11T09:29:40.188Z,86.20
2022-08-11T09:32:09.958Z,86.15
2022-08-11T09:34:40.409Z,86.09
2022-08-11T09:37:54.707Z,84.75
2022-08-11T09:40:30.349Z,85.23
2022-08-11T09:43:19.743Z,84.71
2022-08-11T09:45:53.562Z,85.25
2022-08-11T09:48:37.484Z,84.40
2022-08-11T09:51:08.578Z,85.10
2022-08-11T09:53:40.994Z,84.78
2022-08-11T09:56:41.689Z,83.84
2022-08-11T09:59:10.689Z,84.62
2022-08-11T10:01:44.638Z,83.88
2022-08-11T10:04:18.726Z,85.40
2022-08-11T10:07:17.811Z,84.72
2022-08-11T10:10:02.546Z,84.32
2022-08-11T10:12:37.143Z,85.08
2022-08-11T10:15:28.980Z,84.88
2022-08-11T10:18:20.076Z,84.19
2022-08-11T10:20:52.090Z,84.07
2022-08-11T10:24:00.303Z,85.12
2022-08-11T10:26:49.390Z,84.71
2022-08-11T10:29:44.543Z,83.71
2022-08-11T10:32:57.365Z,83.93
2022-08-11T10:35:31.857Z,84.21
2022-08-11T10:38:08.720Z,85.02
2022-08-11T10:40:42.789Z,84.11
2022-08-11T10:44:01.689Z,84.52
2022-08-11T10:46:30.270Z,85.07
2022-08-11T10:49:01.347Z,84.54
2022-08-11T10:51:51.603Z,84.45
2022-08-11T10:54:41.218Z,84.81
2022-08-11T10:57:29.025Z,83.86
2022-08-11T10:59:59.297Z,84.72
2022-08-11T11:02:28.578Z,85.55
2022-08-11T11:05:22.634Z,85.15
2022-08-11T11:08:04.922Z,85.51
2022-08-11T11:10:34.173Z,85.56
2022-08-11T11:13:21.884Z,84.60
2022-08-11T11:16:09.663Z,85.15
2022-08-11T11:18:40.063Z,85.18
2022-08-11T11:21:13.142Z,85.07
2022-08-11T11:24:03.878Z,84.84
2022-08-11T11:26:57.668Z,85.78
2022-08-11T11:29:47.705Z,85.10
2022-08-11T11:32:22.889Z,85.73
2022-08-11T11:35:29.357Z,86.31
2022-08-11T11:38:04.309Z,86.08
2022-08-11T11:40:35.805Z,86.46
2022-08-11T11:43:06.938Z,86.54
2022-08-11T11:45:37.515Z,86.35
2022-08-11T11:48:08.324Z,85.86
2022-08-11T11:50:39.875Z,86.29
2022-08-11T11:53:13.805Z,86.22
2022-08-11T11:55:47.629Z,87.26
2022-08-11T11:58:35.888Z,86.59
2022-08-11T12:01:17.761Z,86.67
2022-08-11T12:03:50.356Z,86.67
2022-08-11T12:06:22.175Z,86.03
2022-08-11T12:08:55.449Z,86.28
2022-08-11T12:11:44.982Z,86.52
2022-08-11T12:14:17.930Z,87.10
2022-08-11T12:16:49.222Z,86.15
2022-08-11T12:19:22.961Z,86.87
2022-08-11T12:22:11.537Z,86.37
2022-08-11T12:25:00.052Z,86.58
2022-08-11T12:27:31.775Z,86.94
2022-08-11T12:30:10.698Z,87.25
2022-08-11T12:32:42.207Z,86.51
2022-08-11T12:35:12.915Z,86.98
2022-08-11T12:37:43.267Z,86.81
2022-08-11T12:41:12.180Z,86.76
2022-08-11T12:43:57.225Z,86.28
2022-08-11T12:46:39.290Z,86.30
2022-08-11T12:49:34.484Z,86.40
2022-08-11T12:52:14.534Z,86.67
2022-08-11T12:54:59.131Z,86.47
2022-08-11T12:58:10.368Z,86.89
2022-08-11T13:00:58.220Z,86.69
2022-08-11T13:03:52.041Z,86.68
2022-08-11T13:06:27.347Z,86.77
2022-08-11T13:09:01.428Z,86.43
2022-08-11T13:11:56.955Z,86.24
2022-08-11T13:14:29.930Z,86.60
2022-08-11T13:17:18.535Z,86.20
2022-08-11T13:19:49.728Z,86.26
2022-08-11T13:22:22.108Z,86.09
2022-08-11T13:24:53.709Z,86.30
2022-08-11T13:27:24.671Z,86.11
2022-08-11T13:30:14.778Z,86.46
2022-08-11T13:32:46.427Z,85.97
2022-08-11T13:35:17.807Z,86.71
2022-08-11T13:38:17.935Z,86.96
2022-08-11T13:40:55.061Z,86.47
2022-08-11T13:43:25.999Z,86.98
2022-08-11T13:46:16.494Z,86.87
2022-08-11T13:48:47.421Z,86.92
2022-08-11T13:51:34.588Z,87.21
2022-08-11T13:54:14.913Z,87.24
2022-08-11T13:56:48.256Z,87.08
2022-08-11T13:59:31.250Z,86.99
2022-08-11T14:02:22.018Z,87.08
2022-08-11T14:04:55.329Z,87.01
2022-08-11T14:07:29.653Z,87.38
2022-08-11T14:10:01.811Z,86.84
2022-08-11T14:12:53.465Z,87.57
2022-08-11T14:15:27.737Z,87.37
2022-08-11T14:18:04.617Z,87.84
2022-08-11T14:20:54.689Z,87.77
2022-08-11T14:23:52.186Z,87.84
2022-08-11T14:26:29.145Z,88.10
2022-08-11T14:29:17.707Z,87.96
2022-08-11T14:31:55.798Z,88.20
2022-08-11T14:34:26.798Z,88.20
2022-08-11T14:37:01.916Z,88.01
2022-08-11T14:39:38.202Z,87.91
2022-08-11T14:42:28.650Z,87.59
2022-08-11T14:45:21.731Z,88.04
2022-08-11T14:47:58.831Z,88.66
2022-08-11T14:50:29.968Z,88.38
2022-08-11T14:53:06.035Z,88.52
2022-08-11T14:55:57.880Z,88.29
2022-08-11T14:58:29.519Z,88.72
2022-08-11T15:01:03.971Z,88.26
2022-08-11T15:03:37.181Z,88.60
2022-08-11T15:06:06.261Z,88.41
2022-08-11T15:08:55.443Z,88.72
2022-08-11T15:11:45.401Z,88.33
2022-08-11T15:14:15.032Z,88.53
2022-08-11T15:17:04.233Z,89.03
2022-08-11T15:19:40.071Z,88.90
2022-08-11T15:22:29.327Z,88.69
2022-08-11T15:25:00.480Z,88.91
2022-08-11T15:27:51.130Z,88.51
2022-08-11T15:30:41.089Z,88.82
2022-08-11T15:33:30.860Z,88.60
2022-08-11T15:36:20.412Z,88.05
2022-08-11T15:39:09.901Z,88.63
2022-08-11T15:42:20.619Z,88.98
2022-08-11T15:45:18.494Z,87.64
2022-08-11T15:48:05.512Z,88.29
2022-08-11T15:50:40.114Z,88.12
2022-08-11T15:53:27.008Z,88.21
2022-08-11T15:55:57.675Z,87.51
2022-08-11T15:59:41.234Z,87.83
2022-08-11T16:02:05.339Z,87.07
2022-08-11T16:04:36.491Z,87.40
2022-08-11T16:13:14.809Z,87.07
2022-08-11T16:16:08.726Z,86.84
2022-08-11T16:18:57.654Z,86.57
2022-08-11T16:21:35.271Z,86.59
2022-08-11T16:27:02.080Z,87.48
2022-08-11T16:27:13.596Z,86.83
2022-08-11T16:29:48.838Z,86.76
2022-08-11T16:32:24.435Z,87.05
2022-08-11T16:35:30.818Z,86.84
2022-08-11T16:38:19.139Z,86.43
2022-08-11T16:40:50.738Z,86.31
2022-08-11T16:43:40.848Z,86.22
2022-08-11T16:46:29.541Z,86.61
2022-08-11T16:49:01.768Z,86.94
2022-08-11T16:51:30.538Z,86.79
2022-08-11T16:54:05.145Z,86.85
2022-08-11T16:56:49.059Z,86.28
2022-08-11T16:59:25.268Z,86.51
2022-08-11T17:01:55.440Z,87.31
2022-08-11T17:04:51.326Z,87.60
2022-08-11T17:07:43.176Z,87.50
2022-08-11T17:10:57.767Z,87.16
2022-08-11T17:13:38.196Z,87.58
2022-08-11T17:16:13.373Z,86.75
2022-08-11T17:18:52.859Z,86.67
2022-08-11T17:21:27.266Z,86.74
2022-08-11T17:24:02.790Z,86.73
2022-08-11T17:26:59.284Z,87.28
2022-08-11T17:29:54.494Z,87.66
2022-08-11T17:32:56.166Z,87.30
2022-08-11T17:35:34.295Z,87.53
2022-08-11T17:38:08.391Z,87.02
2022-08-11T17:41:02.785Z,87.02
2022-08-11T17:43:52.124Z,87.51
2022-08-11T17:46:40.495Z,86.59
2022-08-11T17:49:12.356Z,87.12
2022-08-11T17:52:04.173Z,87.25
2022-08-11T17:54:52.756Z,87.13
2022-08-11T17:57:47.492Z,87.08
2022-08-11T18:00:17.104Z,87.47
2022-08-11T18:03:05.745Z,87.63
2022-08-11T18:05:37.826Z,87.36
2022-08-11T18:08:29.813Z,87.44
2022-08-11T18:12:00.238Z,87.61
2022-08-11T18:14:28.723Z,87.68
2022-08-11T18:17:16.812Z,87.38
2022-08-11T18:20:04.287Z,87.08
2022-08-11T18:22:57.992Z,87.10
2022-08-11T18:25:49.893Z,87.83
2022-08-11T18:28:43.261Z,87.09
2022-08-11T18:31:34.798Z,87.58
2022-08-11T18:34:26.698Z,87.71
2022-08-11T18:37:36.645Z,87.14
2022-08-11T18:40:36.162Z,87.25
2022-08-11T18:43:28.870Z,87.47
2022-08-11T18:46:25.686Z,87.46
2022-08-11T18:49:19.118Z,87.15
2022-08-11T18:52:12.433Z,87.29
2022-08-11T18:55:03.144Z,87.60
2022-08-11T18:57:54.427Z,87.23
2022-08-11T19:00:43.056Z,87.89
2022-08-11T19:03:48.408Z,87.78
2022-08-11T19:06:41.126Z,87.73
2022-08-11T19:09:32.643Z,88.03
2022-08-11T19:12:21.303Z,87.79
2022-08-11T19:15:10.748Z,87.91
2022-08-11T19:18:03.702Z,87.96
2022-08-11T19:20:53.921Z,87.85
2022-08-11T19:23:47.533Z,87.72
2022-08-11T19:26:35.939Z,87.54
2022-08-11T19:30:11.298Z,88.10
2022-08-11T19:32:33.973Z,88.62
2022-08-11T19:35:22.291Z,88.94
2022-08-11T19:38:10.021Z,88.33
2022-08-11T19:40:58.422Z,88.19
2022-08-11T19:43:48.137Z,87.76
2022-08-11T19:46:39.255Z,88.11
2022-08-11T19:49:27.102Z,88.27
2022-08-11T19:52:15.568Z,87.51
2022-08-11T19:55:05.914Z,88.22
2022-08-11T19:57:56.055Z,88.07
2022-08-11T20:00:43.754Z,88.01
2022-08-11T20:03:32.415Z,88.46
2022-08-11T20:06:27.062Z,88.20
2022-08-11T20:09:18.600Z,88.48
2022-08-11T20:12:09.741Z,88.23
2022-08-11T20:15:00.215Z,88.30
2022-08-11T20:17:49.463Z,87.79
2022-08-11T20:20:37.191Z,88.38
2022-08-11T20:23:26.013Z,88.27
2022-08-11T20:26:30.097Z,87.70
2022-08-11T20:29:19.796Z,87.67
2022-08-11T20:32:09.804Z,87.94
2022-08-11T20:34:59.869Z,88.13
2022-08-11T20:37:51.293Z,88.52
2022-08-11T20:40:43.443Z,88.55
2022-08-11T20:44:05.831Z,87.83
2022-08-11T20:46:45.134Z,88.35
2022-08-11T20:49:41.325Z,88.05
2022-08-11T20:52:42.779Z,87.85
2022-08-11T20:55:51.780Z,88.85
2022-08-11T21:01:52.075Z,88.42
2022-08-11T21:04:53.986Z,88.82
2022-08-11T21:07:55.120Z,88.54
2022-08-11T21:10:50.592Z,88.00
2022-08-11T21:13:42.565Z,86.58
2022-08-11T21:16:37.151Z,88.06
2022-08-11T21:20:01.780Z,87.69
2022-08-11T21:22:59.217Z,87.48
2022-08-11T21:26:06.595Z,87.66
2022-08-11T21:28:58.868Z,87.70
2022-08-11T21:31:48.519Z,87.34
2022-08-11T21:34:39.334Z,87.11
2022-08-11T21:37:29.123Z,88.47
2022-08-11T21:40:19.947Z,88.42
2022-08-11T21:43:09.708Z,88.23
2022-08-11T21:45:58.843Z,88.41
2022-08-11T21:48:47.771Z,88.32
2022-08-11T21:51:35.090Z,88.53
2022-08-11T21:54:24.050Z,88.19
2022-08-11T21:57:11.901Z,88.28
2022-08-11T22:00:24.211Z,87.92
2022-08-11T22:03:12.464Z,88.51
2022-08-11T22:06:01.651Z,88.73
2022-08-11T22:08:48.946Z,88.36
2022-08-11T22:11:36.457Z,88.43
2022-08-11T22:14:24.127Z,89.31
2022-08-11T22:17:11.251Z,89.27
2022-08-11T22:20:00.708Z,89.03
2022-08-11T22:22:53.017Z,89.19
2022-08-11T22:25:53.683Z,89.46
2022-08-11T22:28:43.049Z,88.94
2022-08-11T22:31:31.980Z,88.98
2022-08-11T22:34:19.452Z,88.72
2022-08-11T22:37:08.961Z,89.04
2022-08-11T22:40:02.169Z,89.20
2022-08-11T22:42:51.321Z,88.97
2022-08-11T22:45:39.342Z,89.15
2022-08-11T22:48:29.171Z,89.37
2022-08-11T22:51:18.742Z,89.55
2022-08-11T22:54:06.991Z,89.62
2022-08-11T22:56:55.075Z,89.03
2022-08-11T22:59:42.847Z,89.70
2022-08-11T23:02:31.585Z,89.55
2022-08-11T23:05:19.776Z,90.13
2022-08-11T23:08:07.567Z,89.49
2022-08-11T23:10:54.769Z,90.03
2022-08-11T23:13:42.870Z,90.02
2022-08-11T23:16:30.163Z,90.02
2022-08-11T23:20:08.080Z,90.54
2022-08-11T23:22:36.975Z,90.37
2022-08-11T23:25:31.624Z,90.08
2022-08-11T23:28:20.687Z,90.24
2022-08-11T23:31:12.583Z,90.60
2022-08-11T23:34:04.906Z,90.57
2022-08-11T23:36:52.025Z,91.02
2022-08-11T23:39:39.016Z,90.33
2022-08-11T23:42:26.088Z,90.13
2022-08-11T23:45:18.546Z,90.37
2022-08-11T23:48:10.889Z,90.18
2022-08-11T23:50:57.624Z,90.84
2022-08-11T23:53:44.836Z,90.22
2022-08-11T23:56:33.097Z,90.46
2022-08-11T23:59:21.958Z,90.26
